Time;durP1;ratioP1;P1;durP2;ratioP2;P2;SDS_P1;SDS_P2;PMS_P1;PMS_P2;Temp;Humidity;BMP_temperature;BMP_pressure;BME280_temperature;BME280_humidity;BME280_pressure;Samples;Min_cycle;Max_cycle;Signal;HPM_P1;HPM_P2
2022/08/01 00:02:20;;;;;;;1.80;1.15;;;30.90;30.00;;;;;;6300284;28;20055;-72
2022/08/01 00:05:21;;;;;;;1.95;1.20;;;30.80;30.00;;;;;;6298794;28;20025;-72
2022/08/01 00:08:22;;;;;;;1.98;1.08;;;30.80;30.10;;;;;;6301238;28;20028;-72
2022/08/01 00:11:23;;;;;;;1.65;1.15;;;30.80;30.10;;;;;;6315584;28;20047;-72
2022/08/01 00:14:24;;;;;;;2.20;1.17;;;30.70;30.10;;;;;;6300441;28;20032;-72
2022/08/01 00:17:25;;;;;;;2.97;1.15;;;30.80;30.30;;;;;;6299488;28;20078;-72
2022/08/01 00:20:26;;;;;;;9.60;1.20;;;30.70;30.60;;;;;;6299619;28;20032;-72
2022/08/01 00:23:27;;;;;;;1.65;1.27;;;30.60;30.60;;;;;;6313491;28;20040;-72
2022/08/01 00:26:27;;;;;;;3.22;1.10;;;30.60;30.80;;;;;;6298691;28;20044;-73
2022/08/01 00:29:28;;;;;;;11.95;1.30;;;30.50;30.90;;;;;;6300059;28;20430;-73
2022/08/01 00:32:32;;;;;;;1.38;1.27;;;30.40;31.10;;;;;;6296084;28;20033;-72
2022/08/01 00:35:33;;;;;;;1.90;1.45;;;30.30;31.50;;;;;;6300107;28;20373;-72
2022/08/01 00:38:35;;;;;;;3.13;1.20;;;30.20;31.80;;;;;;6287543;28;20119;-72
2022/08/01 00:41:35;;;;;;;1.60;1.10;;;30.10;32.00;;;;;;6298992;28;20143;-72
2022/08/01 00:44:37;;;;;;;1.45;1.23;;;30.00;32.20;;;;;;6274185;28;20041;-72
2022/08/01 00:47:38;;;;;;;2.10;1.10;;;29.90;32.30;;;;;;6297949;28;20123;-72
2022/08/01 00:50:39;;;;;;;2.78;1.40;;;29.80;32.40;;;;;;6273410;28;20041;-72
2022/08/01 00:53:40;;;;;;;1.23;1.13;;;29.70;32.40;;;;;;6294041;28;20036;-72
2022/08/01 00:56:41;;;;;;;1.40;1.10;;;29.70;32.50;;;;;;6298090;28;20366;-73
2022/08/01 00:59:42;;;;;;;2.40;1.20;;;29.60;32.60;;;;;;6298207;28;20178;-72
2022/08/01 01:02:43;;;;;;;1.35;1.10;;;29.50;32.70;;;;;;6298898;28;20461;-72
2022/08/01 01:05:59;;;;;;;4.80;1.50;;;29.30;32.70;;;;;;6298184;28;20024;-72
2022/08/01 01:09:08;;;;;;;1.52;1.42;;;29.40;32.90;;;;;;6291735;28;20432;-72
2022/08/01 01:12:18;;;;;;;2.28;1.20;;;29.30;33.00;;;;;;6296223;28;20116;-73
2022/08/01 01:15:33;;;;;;;2.83;1.10;;;29.30;33.00;;;;;;6296164;28;20181;-72
2022/08/01 01:19:05;;;;;;;1.30;1.20;;;29.20;33.20;;;;;;6282366;28;20118;-72
2022/08/01 01:22:54;;;;;;;1.55;1.15;;;29.20;33.40;;;;;;6228581;28;20029;-73
2022/08/01 01:26:06;;;;;;;3.95;1.10;;;29.20;33.40;;;;;;6210789;28;20037;-72
2022/08/01 01:29:19;;;;;;;1.30;1.20;;;29.10;33.40;;;;;;6201323;28;20050;-72
2022/08/01 01:32:27;;;;;;;2.08;1.35;;;29.10;33.50;;;;;;6224017;28;20136;-72
2022/08/01 01:35:32;;;;;;;4.00;1.10;;;29.00;33.40;;;;;;6229352;28;20445;-72
2022/08/01 01:38:37;;;;;;;5.03;1.10;;;29.00;33.50;;;;;;6245067;28;20113;-72
2022/08/01 01:41:40;;;;;;;1.40;1.13;;;29.00;33.60;;;;;;6228100;28;20039;-73
2022/08/01 01:44:43;;;;;;;2.13;1.20;;;29.00;33.70;;;;;;6227053;28;20049;-73
2022/08/01 01:47:45;;;;;;;1.65;1.38;;;29.00;33.90;;;;;;6206553;28;20044;-73
2022/08/01 01:50:51;;;;;;;1.30;0.95;;;29.00;33.90;;;;;;6242936;28;20366;-73
2022/08/01 01:53:54;;;;;;;1.85;1.25;;;29.00;34.10;;;;;;6244515;28;20041;-72
2022/08/01 01:56:58;;;;;;;4.55;1.38;;;28.90;34.20;;;;;;6230416;28;20079;-72
2022/08/01 02:00:00;;;;;;;2.53;1.25;;;28.80;34.30;;;;;;6292674;28;20060;-72
2022/08/01 02:03:03;;;;;;;2.08;1.30;;;28.80;34.40;;;;;;6294376;28;20350;-72
2022/08/01 02:06:04;;;;;;;2.65;1.35;;;28.80;34.50;;;;;;6293823;28;20036;-72
2022/08/01 02:09:08;;;;;;;2.30;1.30;;;28.70;34.60;;;;;;6294403;28;20048;-72
2022/08/01 02:12:14;;;;;;;1.98;1.40;;;28.70;34.70;;;;;;6277957;28;20120;-73
2022/08/01 02:15:17;;;;;;;1.73;1.27;;;28.60;35.00;;;;;;6294852;28;20533;-73
2022/08/01 02:18:18;;;;;;;1.88;1.60;;;28.60;35.30;;;;;;6296356;28;20032;-73
2022/08/01 02:21:27;;;;;;;2.10;1.13;;;28.50;35.70;;;;;;6295571;28;20024;-73
2022/08/01 02:24:50;;;;;;;1.55;1.30;;;28.40;36.10;;;;;;6309649;28;20032;-73
2022/08/01 02:28:17;;;;;;;2.42;1.75;;;28.20;36.20;;;;;;6296147;28;20047;-72
2022/08/01 02:31:21;;;;;;;4.90;1.50;;;28.20;36.30;;;;;;6293191;28;20362;-74
2022/08/01 02:34:25;;;;;;;2.22;1.25;;;28.10;36.40;;;;;;6278699;28;20040;-72
2022/08/01 02:37:28;;;;;;;2.60;1.50;;;28.10;36.50;;;;;;6295009;28;20032;-71
2022/08/01 02:40:33;;;;;;;4.40;1.30;;;28.00;36.50;;;;;;6277154;28;20037;-72
2022/08/01 02:43:38;;;;;;;6.30;1.70;;;28.00;36.70;;;;;;6277296;28;20032;-72
2022/08/01 02:46:45;;;;;;;2.70;1.30;;;28.00;36.60;;;;;;6279571;28;20048;-72
2022/08/01 02:49:50;;;;;;;1.60;1.17;;;28.00;36.70;;;;;;6310407;28;20036;-73
2022/08/01 02:52:52;;;;;;;4.07;1.50;;;28.00;36.80;;;;;;6294785;28;20064;-72
2022/08/01 02:55:54;;;;;;;1.60;1.30;;;27.90;37.00;;;;;;6292927;28;20047;-72
2022/08/01 02:58:55;;;;;;;2.10;1.27;;;27.90;37.30;;;;;;6294716;28;20402;-73
2022/08/01 03:01:58;;;;;;;2.70;1.73;;;27.90;37.30;;;;;;6277394;28;20047;-72
2022/08/01 03:05:02;;;;;;;1.35;1.25;;;27.80;37.40;;;;;;6294332;28;20068;-73
2022/08/01 03:08:04;;;;;;;1.92;1.42;;;27.80;37.50;;;;;;6292932;28;20036;-73
2022/08/01 03:11:06;;;;;;;3.33;1.55;;;27.70;37.40;;;;;;6294254;28;20051;-73
2022/08/01 03:14:09;;;;;;;1.33;1.23;;;27.70;37.50;;;;;;6309073;28;20453;-73
2022/08/01 03:17:11;;;;;;;1.80;1.33;;;27.60;37.40;;;;;;6295384;28;20028;-73
2022/08/01 03:20:15;;;;;;;1.60;1.45;;;27.60;37.50;;;;;;6308634;28;20131;-73
2022/08/01 03:23:17;;;;;;;2.42;1.30;;;27.60;37.50;;;;;;6311320;28;20033;-74
2022/08/01 03:26:19;;;;;;;2.60;1.90;;;27.60;37.80;;;;;;6292954;28;20021;-73
2022/08/01 03:29:24;;;;;;;3.20;1.50;;;27.50;37.80;;;;;;6294460;28;20086;-73
2022/08/01 03:32:28;;;;;;;1.70;1.60;;;27.40;37.90;;;;;;6293588;28;20044;-73
2022/08/01 03:35:37;;;;;;;1.77;1.45;;;27.40;38.10;;;;;;6293499;28;20036;-73
2022/08/01 03:38:40;;;;;;;4.40;1.40;;;27.40;38.30;;;;;;6293229;28;21498;-73
2022/08/01 03:41:48;;;;;;;5.05;1.65;;;27.30;38.30;;;;;;6289990;28;20032;-73
2022/08/01 03:44:53;;;;;;;;;;;27.30;38.30;;;;;;6286256;28;20053;-73
2022/08/01 03:48:06;;;;;;;1.88;1.50;;;27.30;38.40;;;;;;6288139;28;19916;-73
2022/08/01 03:51:08;;;;;;;3.80;1.52;;;27.30;38.50;;;;;;6295231;28;20090;-73
2022/08/01 03:54:10;;;;;;;3.03;1.48;;;27.30;38.70;;;;;;6309878;28;20487;-73
2022/08/01 03:57:15;;;;;;;4.40;1.67;;;27.30;38.80;;;;;;6292349;28;20068;-73
2022/08/01 04:00:18;;;;;;;3.63;1.63;;;27.30;39.10;;;;;;6294739;28;20123;-73
2022/08/01 04:03:19;;;;;;;5.38;1.73;;;27.20;39.30;;;;;;6293291;28;20029;-72
2022/08/01 04:06:20;;;;;;;5.50;1.67;;;27.20;39.30;;;;;;6293493;28;20496;-74
2022/08/01 04:09:21;;;;;;;2.65;1.80;;;27.10;39.20;;;;;;6293786;28;20025;-72
2022/08/01 04:12:22;;;;;;;4.18;1.98;;;27.10;39.30;;;;;;6296159;28;20077;-72
2022/08/01 04:15:23;;;;;;;6.63;1.75;;;27.00;39.50;;;;;;6296739;28;20047;-72
2022/08/01 04:18:24;;;;;;;1.92;1.52;;;26.90;39.60;;;;;;6277220;28;20339;-72
2022/08/01 04:21:28;;;;;;;2.88;1.85;;;26.80;39.90;;;;;;6293851;28;20040;-72
2022/08/01 04:24:31;;;;;;;4.05;1.73;;;26.70;40.10;;;;;;6293640;28;20028;-73
2022/08/01 04:27:37;;;;;;;3.83;1.95;;;26.60;40.20;;;;;;6294132;28;20058;-72
2022/08/01 04:30:40;;;;;;;4.78;1.70;;;26.60;40.20;;;;;;6308534;28;20028;-72
2022/08/01 04:33:46;;;;;;;4.20;2.00;;;26.50;40.20;;;;;;6306156;28;20055;-72
2022/08/01 04:36:48;;;;;;;2.55;1.88;;;26.50;40.30;;;;;;6298131;28;20466;-72
2022/08/01 04:39:52;;;;;;;5.40;1.70;;;26.50;40.50;;;;;;6283425;28;20028;-72
2022/08/01 04:42:53;;;;;;;4.55;2.13;;;26.50;40.50;;;;;;6297160;28;20040;-72
2022/08/01 04:45:56;;;;;;;4.45;1.92;;;26.40;40.40;;;;;;6303081;28;20114;-72
2022/08/01 04:48:57;;;;;;;3.53;1.67;;;26.30;40.50;;;;;;6284019;28;20059;-72
2022/08/01 04:52:00;;;;;;;3.17;1.90;;;26.30;40.70;;;;;;6299754;28;20025;-72
2022/08/01 04:55:01;;;;;;;4.15;2.05;;;26.30;40.80;;;;;;6298202;28;20185;-72
2022/08/01 04:58:02;;;;;;;3.55;1.77;;;26.30;40.90;;;;;;6298556;28;20146;-72
2022/08/01 05:01:03;;;;;;;3.80;2.25;;;26.30;41.10;;;;;;6298915;28;20028;-72
2022/08/01 05:04:04;;;;;;;3.03;2.00;;;26.20;40.90;;;;;;6297857;28;20036;-72
2022/08/01 05:07:05;;;;;;;2.63;1.60;;;26.20;40.90;;;;;;6313462;28;20082;-72
2022/08/01 05:10:06;;;;;;;5.15;2.08;;;26.20;40.90;;;;;;6291730;28;20125;-72
2022/08/01 05:13:08;;;;;;;2.80;1.90;;;26.20;41.00;;;;;;6291452;28;20055;-72
2022/08/01 05:16:09;;;;;;;3.72;2.30;;;26.20;41.00;;;;;;6302585;28;20460;-72
2022/08/01 05:19:10;;;;;;;2.78;1.80;;;26.20;41.20;;;;;;6290195;28;20048;-72
2022/08/01 05:22:11;;;;;;;4.65;2.30;;;26.20;41.30;;;;;;6282230;28;20047;-73
2022/08/01 05:25:12;;;;;;;3.25;1.58;;;26.30;41.60;;;;;;6289088;28;20036;-72
2022/08/01 05:28:13;;;;;;;5.00;1.65;;;26.10;41.50;;;;;;6292260;28;20399;-71
2022/08/01 05:31:14;;;;;;;2.55;1.35;;;26.30;41.60;;;;;;6273948;28;20054;-73
2022/08/01 05:34:14;;;;;;;3.78;2.05;;;26.30;41.70;;;;;;6291556;28;20153;-74
2022/08/01 05:37:15;;;;;;;2.50;1.70;;;26.10;41.60;;;;;;6289577;28;20062;-73
2022/08/01 05:40:16;;;;;;;1.88;1.50;;;26.30;41.80;;;;;;6289329;28;20032;-75
2022/08/01 05:43:17;;;;;;;2.00;1.80;;;26.30;41.80;;;;;;6286682;28;20063;-75
2022/08/01 05:46:18;;;;;;;2.85;1.80;;;26.30;41.70;;;;;;6284106;28;20691;-75
2022/08/01 05:49:19;;;;;;;11.02;2.25;;;26.40;41.70;;;;;;6288477;28;20033;-75
2022/08/01 05:52:20;;;;;;;6.28;2.08;;;26.40;41.60;;;;;;6291767;28;20036;-75
2022/08/01 05:55:21;;;;;;;5.28;2.10;;;26.50;41.50;;;;;;6287663;28;20067;-76
2022/08/01 05:58:22;;;;;;;3.13;1.98;;;26.60;41.40;;;;;;6290870;28;20479;-75
2022/08/01 06:01:23;;;;;;;10.93;1.90;;;26.70;41.30;;;;;;6298082;28;20109;-75
2022/08/01 06:04:24;;;;;;;2.20;2.00;;;26.70;41.90;;;;;;6294443;28;20376;-76
2022/08/01 06:07:25;;;;;;;6.35;2.55;;;26.70;41.20;;;;;;6298410;28;20047;-75
2022/08/01 06:10:26;;;;;;;3.60;1.98;;;26.80;41.30;;;;;;6280235;28;20056;-75
2022/08/01 06:13:27;;;;;;;8.88;2.05;;;26.80;41.30;;;;;;6288746;28;20049;-76
2022/08/01 06:16:28;;;;;;;4.53;2.28;;;26.90;41.40;;;;;;6291909;28;20094;-76
2022/08/01 06:19:28;;;;;;;2.75;2.45;;;26.90;41.50;;;;;;6308596;28;20036;-78
2022/08/01 06:22:29;;;;;;;4.75;2.15;;;26.80;41.40;;;;;;6294875;28;20039;-78
2022/08/01 06:25:30;;;;;;;2.85;2.17;;;26.80;41.50;;;;;;6290986;28;20060;-77
2022/08/01 06:28:31;;;;;;;5.05;1.85;;;26.80;41.30;;;;;;6274844;28;20085;-79
2022/08/01 06:31:32;;;;;;;7.05;2.13;;;26.80;41.30;;;;;;6297713;28;20062;-76
2022/08/01 06:34:33;;;;;;;6.72;2.05;;;26.80;41.20;;;;;;6279266;28;20039;-76
2022/08/01 06:37:34;;;;;;;3.35;2.03;;;26.80;41.00;;;;;;6272795;28;20033;-76
2022/08/01 06:40:36;;;;;;;4.53;2.28;;;26.90;41.00;;;;;;6302763;28;20036;-77
2022/08/01 06:43:37;;;;;;;2.55;1.80;;;27.00;40.80;;;;;;6297287;28;20064;-77
2022/08/01 06:46:38;;;;;;;4.43;2.08;;;27.00;40.70;;;;;;6280989;28;20035;-77
2022/08/01 06:49:39;;;;;;;6.07;2.30;;;27.10;40.50;;;;;;6295924;28;20477;-77
2022/08/01 06:52:41;;;;;;;4.43;1.88;;;27.10;40.40;;;;;;6288610;28;20051;-77
2022/08/01 06:55:42;;;;;;;2.38;1.75;;;27.10;40.30;;;;;;6294443;28;20355;-76
2022/08/01 06:58:42;;;;;;;5.30;2.20;;;27.20;40.10;;;;;;6272470;28;20048;-76
2022/08/01 07:01:43;;;;;;;5.43;1.88;;;27.30;39.90;;;;;;6272217;28;20063;-77
2022/08/01 07:04:44;;;;;;;3.85;1.50;;;27.50;39.80;;;;;;6295375;28;20101;-76
2022/08/01 07:07:45;;;;;;;5.70;2.08;;;27.50;39.70;;;;;;6286482;28;20405;-77
2022/08/01 07:10:47;;;;;;;3.45;2.03;;;27.60;39.70;;;;;;6287798;28;20462;-77
2022/08/01 07:13:48;;;;;;;2.85;1.90;;;27.80;39.60;;;;;;6297372;28;20051;-77
2022/08/01 07:16:50;;;;;;;3.08;1.70;;;27.90;39.30;;;;;;6297846;28;20389;-78
2022/08/01 07:19:53;;;;;;;8.40;1.85;;;28.00;39.20;;;;;;6297465;28;20029;-76
2022/08/01 07:22:54;;;;;;;3.10;1.88;;;28.20;38.90;;;;;;6313175;28;20040;-76
2022/08/01 07:25:55;;;;;;;2.85;1.95;;;28.30;38.60;;;;;;6297158;28;20077;-77
2022/08/01 07:28:56;;;;;;;5.40;1.70;;;28.50;38.20;;;;;;6296422;28;20048;-77
2022/08/01 07:31:57;;;;;;;4.72;1.83;;;28.60;37.70;;;;;;6279215;28;20033;-77
2022/08/01 07:34:58;;;;;;;3.08;2.25;;;28.70;37.60;;;;;;6296890;28;20472;-77
2022/08/01 07:37:59;;;;;;;4.28;1.70;;;28.90;37.50;;;;;;6279979;28;20052;-78
2022/08/01 07:41:00;;;;;;;2.97;1.80;;;29.00;37.10;;;;;;6296571;28;20062;-77
2022/08/01 07:44:03;;;;;;;7.00;2.15;;;29.20;36.70;;;;;;6282037;28;20040;-77
2022/08/01 07:47:04;;;;;;;5.78;2.10;;;29.30;36.40;;;;;;6272469;28;20048;-78
2022/08/01 07:50:06;;;;;;;3.15;1.73;;;29.40;35.90;;;;;;6288154;28;20037;-78
2022/08/01 07:53:09;;;;;;;2.15;1.90;;;29.40;35.90;;;;;;6255291;28;20037;-77
2022/08/01 07:56:10;;;;;;;4.80;2.13;;;29.50;35.90;;;;;;6277995;28;20045;-76
2022/08/01 07:59:11;;;;;;;5.28;1.90;;;29.60;35.50;;;;;;6296833;28;20055;-77
2022/08/01 08:02:12;;;;;;;2.42;2.00;;;29.70;35.30;;;;;;6296740;28;20106;-76
2022/08/01 08:05:13;;;;;;;3.08;1.90;;;29.70;35.10;;;;;;6296147;28;20048;-77
2022/08/01 08:08:15;;;;;;;5.40;1.70;;;29.80;34.70;;;;;;6279358;28;20033;-77
2022/08/01 08:11:16;;;;;;;4.15;1.77;;;29.90;34.50;;;;;;6299866;28;20055;-75
2022/08/01 08:14:18;;;;;;;1.85;1.75;;;30.00;34.20;;;;;;6300339;28;20044;-78
2022/08/01 08:17:19;;;;;;;6.22;1.90;;;30.10;34.00;;;;;;6299239;28;20033;-77
2022/08/01 08:20:24;;;;;;;4.07;2.10;;;30.20;33.60;;;;;;6300772;28;20050;-76
2022/08/01 08:26:44;;;;;;;3.00;1.77;;;30.40;33.30;;;;;;6297472;28;20086;-76
2022/08/01 08:29:45;;;;;;;4.65;1.92;;;30.50;33.30;;;;;;6298733;28;20408;-75
2022/08/01 08:32:46;;;;;;;2.95;2.05;;;30.60;33.10;;;;;;6294569;28;20064;-76
2022/08/01 08:35:47;;;;;;;7.50;2.03;;;30.70;32.80;;;;;;6297802;28;20059;-76
2022/08/01 08:38:48;;;;;;;4.72;1.67;;;30.80;32.60;;;;;;6298742;28;20450;-75
2022/08/01 08:41:50;;;;;;;4.50;1.80;;;30.90;32.40;;;;;;6299616;28;20037;-76
2022/08/01 08:44:51;;;;;;;9.32;2.20;;;31.00;32.20;;;;;;6291166;28;20033;-76
2022/08/01 08:47:53;;;;;;;3.05;1.60;;;31.10;32.20;;;;;;6295874;28;20499;-76
2022/08/01 08:50:57;;;;;;;1.77;1.60;;;31.20;32.10;;;;;;6278023;28;20049;-75
2022/08/01 08:53:58;;;;;;;2.20;2.00;;;31.30;32.10;;;;;;6268678;28;20047;-77
2022/08/01 08:57:00;;;;;;;5.10;1.90;;;31.40;32.00;;;;;;6298478;28;20040;-77
2022/08/01 09:00:02;;;;;;;3.13;2.10;;;31.50;31.90;;;;;;6297955;28;20036;-76
2022/08/01 09:03:02;;;;;;;8.48;1.83;;;31.60;31.70;;;;;;6297708;28;20082;-77
2022/08/01 09:06:03;;;;;;;5.63;2.13;;;31.70;31.50;;;;;;6294431;28;20062;-77
2022/08/01 09:09:05;;;;;;;8.77;1.98;;;31.80;31.30;;;;;;6298354;28;20040;-76
2022/08/01 09:12:06;;;;;;;2.53;1.70;;;31.90;31.30;;;;;;6314088;28;20365;-76
2022/08/01 09:15:08;;;;;;;4.40;2.30;;;31.90;31.10;;;;;;6298744;28;20040;-76
2022/08/01 09:18:25;;;;;;;2.53;1.92;;;32.00;31.20;;;;;;6298973;28;20145;-76
2022/08/01 09:21:26;;;;;;;7.72;1.63;;;32.00;31.10;;;;;;6296386;28;20032;-76
2022/08/01 09:24:31;;;;;;;3.65;1.65;;;32.20;30.90;;;;;;6297864;28;20487;-76
2022/08/01 09:27:34;;;;;;;3.83;1.70;;;32.20;30.70;;;;;;6297507;28;20480;-75
2022/08/01 09:30:39;;;;;;;2.45;1.60;;;32.20;30.60;;;;;;6299475;28;20037;-75
2022/08/01 09:33:57;;;;;;;3.35;1.80;;;32.30;30.50;;;;;;6309455;28;20393;-75
2022/08/01 09:37:03;;;;;;;5.60;1.83;;;32.30;30.40;;;;;;6297317;28;20466;-75
2022/08/01 09:40:04;;;;;;;1.90;1.50;;;32.40;30.40;;;;;;6298280;28;20044;-75
2022/08/01 09:43:12;;;;;;;13.45;2.17;;;32.40;30.30;;;;;;6313672;28;20036;-75
2022/08/01 09:46:13;;;;;;;3.97;1.48;;;32.40;30.10;;;;;;6295834;28;20516;-75
2022/08/01 09:49:14;;;;;;;3.88;1.90;;;32.50;30.00;;;;;;6297042;28;20044;-75
2022/08/01 09:52:17;;;;;;;7.03;1.80;;;32.60;29.80;;;;;;6296395;28;20028;-75
2022/08/01 09:55:21;;;;;;;3.45;1.70;;;32.70;29.70;;;;;;6297600;28;20423;-75
2022/08/01 09:58:22;;;;;;;3.13;1.80;;;32.70;29.70;;;;;;6279987;28;20028;-76
2022/08/01 10:01:23;;;;;;;4.72;1.65;;;32.80;29.60;;;;;;6297752;28;20383;-75
2022/08/01 10:04:24;;;;;;;2.72;1.80;;;32.80;29.60;;;;;;6295466;28;20029;-76
2022/08/01 10:07:25;;;;;;;2.10;1.80;;;32.80;29.40;;;;;;6297258;28;20036;-76
2022/08/01 10:10:26;;;;;;;2.20;1.58;;;32.90;29.30;;;;;;6286339;28;20048;-75
2022/08/01 10:13:28;;;;;;;1.85;1.55;;;32.90;29.20;;;;;;6312025;28;20032;-76
2022/08/01 10:16:30;;;;;;;3.33;1.80;;;33.00;29.30;;;;;;6295723;28;20036;-76
2022/08/01 10:19:32;;;;;;;2.97;2.08;;;33.10;29.20;;;;;;6297411;28;20370;-76
2022/08/01 10:22:34;;;;;;;9.35;1.80;;;33.10;29.10;;;;;;6295645;28;20044;-76
2022/08/01 10:25:40;;;;;;;3.75;1.73;;;33.30;29.10;;;;;;6297032;28;20056;-75
2022/08/01 10:28:47;;;;;;;3.50;1.30;;;33.30;29.00;;;;;;6292933;28;20105;-76
2022/08/01 10:31:49;;;;;;;3.00;1.50;;;33.30;29.00;;;;;;6296067;28;20103;-75
2022/08/01 10:34:50;;;;;;;6.80;1.50;;;33.30;28.90;;;;;;6295081;28;20040;-76
2022/08/01 10:37:57;;;;;;;4.25;1.73;;;33.40;28.80;;;;;;6296679;28;20097;-75
2022/08/01 10:41:02;;;;;;;4.72;1.40;;;33.50;28.90;;;;;;6296409;28;20125;-77
2022/08/01 10:44:02;;;;;;;4.60;1.45;;;33.60;28.80;;;;;;6292188;28;20116;-76
2022/08/01 10:47:10;;;;;;;3.38;1.33;;;33.60;28.80;;;;;;6269505;28;20025;-76
2022/08/01 10:50:23;;;;;;;3.72;1.40;;;33.70;28.70;;;;;;6271192;28;20041;-76
2022/08/01 10:53:26;;;;;;;1.95;1.60;;;33.80;28.60;;;;;;6291335;28;20107;-76
2022/08/01 10:56:44;;;;;;;5.40;1.20;;;33.80;28.40;;;;;;6295109;28;20465;-75
2022/08/01 10:59:49;;;;;;;;;;;33.80;28.30;;;;;;6292731;28;20090;-75
2022/08/01 11:03:03;;;;;;;2.30;1.50;;;33.90;28.20;;;;;;6293576;28;20252;-75
2022/08/01 11:06:04;;;;;;;5.05;1.77;;;34.40;27.70;;;;;;6294459;28;20127;-76
2022/08/01 11:09:27;;;;;;;3.35;1.33;;;35.00;27.20;;;;;;6294164;28;20041;-76
2022/08/01 11:12:41;;;;;;;2.60;1.60;;;35.60;26.60;;;;;;6294640;28;20139;-76
2022/08/01 11:15:42;;;;;;;1.50;1.40;;;36.30;26.00;;;;;;6294986;28;20044;-77
2022/08/01 11:18:50;;;;;;;1.92;1.27;;;36.70;25.60;;;;;;6295038;28;20123;-77
2022/08/01 11:21:57;;;;;;;2.58;1.30;;;37.00;25.10;;;;;;6295033;28;20028;-76
2022/08/01 11:24:57;;;;;;;1.85;1.30;;;37.30;24.90;;;;;;6295946;28;20465;-76
2022/08/01 11:28:14;;;;;;;2.75;1.48;;;37.50;24.60;;;;;;6295968;28;20128;-75
2022/08/01 11:31:16;;;;;;;6.38;2.00;;;38.00;24.20;;;;;;6295723;28;21264;-75
2022/08/01 11:34:17;;;;;;;2.83;1.42;;;38.10;23.80;;;;;;6275536;28;20168;-76
2022/08/01 11:37:28;;;;;;;6.20;1.40;;;38.20;23.70;;;;;;6269459;28;20044;-76
2022/08/01 11:40:29;;;;;;;2.58;1.35;;;38.20;23.30;;;;;;6286831;28;20040;-76
2022/08/01 11:43:30;;;;;;;7.88;1.67;;;38.40;23.10;;;;;;6296818;28;20033;-77
2022/08/01 11:46:50;;;;;;;10.30;2.03;;;38.60;22.90;;;;;;6301132;28;20036;-76
2022/08/01 11:49:54;;;;;;;11.00;1.35;;;38.90;22.80;;;;;;6298778;28;20050;-75
2022/08/01 11:53:00;;;;;;;1.40;1.25;;;38.90;22.40;;;;;;6298841;28;20072;-76
2022/08/01 11:56:01;;;;;;;1.20;1.10;;;39.00;22.30;;;;;;6299856;28;20401;-76
2022/08/01 11:59:02;;;;;;;2.72;1.25;;;39.00;22.90;;;;;;6299472;28;20056;-76
2022/08/01 12:02:04;;;;;;;2.55;1.33;;;38.50;22.60;;;;;;6300404;28;20544;-76
2022/08/01 12:05:10;;;;;;;2.28;1.20;;;38.30;22.80;;;;;;6300213;28;20042;-77
2022/08/01 12:08:10;;;;;;;10.15;1.42;;;38.20;22.70;;;;;;6307972;28;20373;-76
2022/08/01 12:11:11;;;;;;;11.07;1.15;;;38.40;22.50;;;;;;6300505;28;20060;-76
2022/08/01 12:14:17;;;;;;;4.72;1.42;;;38.30;22.50;;;;;;6300383;28;20056;-76
2022/08/01 12:17:18;;;;;;;3.13;1.30;;;38.30;22.30;;;;;;6299768;28;20153;-78
2022/08/01 12:20:21;;;;;;;6.45;1.10;;;38.60;21.90;;;;;;6300121;28;20045;-75
2022/08/01 12:23:22;;;;;;;6.00;1.58;;;38.80;21.70;;;;;;6300019;28;20044;-76
2022/08/01 12:26:38;;;;;;;1.50;1.23;;;38.80;21.70;;;;;;6299346;28;20454;-77
2022/08/01 12:29:41;;;;;;;3.17;1.08;;;38.70;21.90;;;;;;6296961;28;20183;-77
2022/08/01 12:32:44;;;;;;;1.23;1.13;;;38.50;22.00;;;;;;6297620;28;20063;-76
2022/08/01 12:35:45;;;;;;;4.32;1.10;;;38.50;21.90;;;;;;6310790;28;20036;-77
2022/08/01 12:38:52;;;;;;;2.53;0.90;;;38.60;21.50;;;;;;6298515;28;20032;-77
2022/08/01 12:41:53;;;;;;;;;;;38.90;21.00;;;;;;6299057;28;20064;-76
2022/08/01 12:44:55;;;;;;;7.35;1.30;;;39.30;20.80;;;;;;6298488;28;19922;-76
2022/08/01 12:47:59;;;;;;;2.65;1.10;;;39.60;20.40;;;;;;6295329;28;20044;-76
2022/08/01 12:51:02;;;;;;;1.05;0.90;;;40.00;20.30;;;;;;6311761;28;20919;-75
2022/08/01 12:54:04;;;;;;;3.20;0.93;;;40.40;19.90;;;;;;6300420;28;20063;-76
2022/08/01 12:57:22;;;;;;;2.03;1.00;;;41.00;19.60;;;;;;6296464;28;20064;-75
2022/08/01 13:00:25;;;;;;;2.60;1.17;;;41.60;19.00;;;;;;6296625;28;20029;-75
2022/08/01 13:03:26;;;;;;;5.63;1.00;;;42.00;18.70;;;;;;6297754;28;20032;-76
2022/08/01 13:06:29;;;;;;;1.58;1.20;;;42.20;18.40;;;;;;6296807;28;20040;-75
2022/08/01 13:09:32;;;;;;;4.68;0.90;;;42.50;18.20;;;;;;6297113;28;20346;-75
2022/08/01 13:12:33;;;;;;;1.27;1.02;;;42.60;17.90;;;;;;6297049;28;20365;-76
2022/08/01 13:15:36;;;;;;;1.25;0.90;;;42.90;17.80;;;;;;6296290;28;20044;-76
2022/08/01 13:18:37;;;;;;;0.98;0.88;;;42.90;17.70;;;;;;6275409;28;20342;-75
2022/08/01 13:21:38;;;;;;;1.25;1.00;;;43.00;17.70;;;;;;6296653;28;20040;-76
2022/08/01 13:24:39;;;;;;;2.38;1.05;;;43.30;17.50;;;;;;6297222;28;20052;-76
2022/08/01 13:27:40;;;;;;;1.63;1.30;;;43.70;17.10;;;;;;6287889;28;20052;-76
2022/08/01 13:31:01;;;;;;;1.20;1.08;;;44.10;16.50;;;;;;6296745;28;20036;-76
2022/08/01 13:34:02;;;;;;;3.67;1.30;;;44.70;16.20;;;;;;6296480;28;20481;-75
2022/08/01 13:37:03;;;;;;;2.45;0.75;;;45.20;15.90;;;;;;6293314;28;20035;-76
2022/08/01 13:40:10;;;;;;;1.13;0.95;;;45.40;15.40;;;;;;6295794;28;20410;-75
2022/08/01 13:43:11;;;;;;;3.70;0.90;;;45.90;15.20;;;;;;6297189;28;20115;-76
2022/08/01 13:46:12;;;;;;;2.30;1.02;;;46.30;14.70;;;;;;6297263;28;20038;-77
2022/08/01 13:49:12;;;;;;;1.38;0.93;;;46.80;14.40;;;;;;6295711;28;20028;-75
2022/08/01 13:52:13;;;;;;;1.30;1.00;;;46.90;14.30;;;;;;6279256;28;20024;-76
2022/08/01 13:55:14;;;;;;;1.15;0.80;;;46.90;14.20;;;;;;6296693;28;20056;-76
2022/08/01 13:58:15;;;;;;;4.35;0.85;;;47.10;13.90;;;;;;6296396;28;20422;-76
2022/08/01 14:01:16;;;;;;;0.80;0.80;;;47.30;13.70;;;;;;6295517;28;20029;-76
2022/08/01 14:04:17;;;;;;;2.78;0.90;;;47.40;13.80;;;;;;6296200;28;20097;-76
2022/08/01 14:07:18;;;;;;;1.38;0.90;;;47.10;13.50;;;;;;6283557;28;20484;-77
2022/08/01 14:10:19;;;;;;;1.05;0.80;;;47.10;13.60;;;;;;6284680;28;20037;-74
2022/08/01 14:13:20;;;;;;;3.83;1.00;;;47.30;13.50;;;;;;6296574;28;20028;-74
2022/08/01 14:16:21;;;;;;;4.70;1.02;;;47.70;13.30;;;;;;6296133;28;20123;-75
2022/08/01 14:19:22;;;;;;;1.20;1.10;;;47.90;13.10;;;;;;6296235;28;20055;-75
2022/08/01 14:22:22;;;;;;;2.75;0.70;;;48.00;13.10;;;;;;6295029;28;20056;-76
2022/08/01 14:25:23;;;;;;;2.63;0.80;;;48.00;13.00;;;;;;6298900;28;20036;-75
2022/08/01 14:28:27;;;;;;;1.77;0.88;;;48.00;12.80;;;;;;6278557;28;20108;-75
2022/08/01 14:31:29;;;;;;;1.90;0.80;;;48.00;12.80;;;;;;6277827;28;20037;-74
2022/08/01 14:34:30;;;;;;;1.48;0.82;;;48.10;13.30;;;;;;6295230;28;20393;-74
2022/08/01 14:37:31;;;;;;;5.97;1.15;;;48.20;12.70;;;;;;6298360;28;20058;-75
2022/08/01 14:40:32;;;;;;;6.10;1.58;;;48.20;12.80;;;;;;6301257;28;20059;-75
2022/08/01 14:43:33;;;;;;;0.75;0.75;;;48.50;13.00;;;;;;6293423;28;20036;-75
2022/08/01 14:46:34;;;;;;;1.80;0.75;;;48.60;12.80;;;;;;6294408;28;20044;-75
2022/08/01 14:49:35;;;;;;;3.60;1.00;;;48.80;12.60;;;;;;6295860;28;20055;-76
2022/08/01 14:52:37;;;;;;;1.77;0.85;;;48.80;12.60;;;;;;6283044;28;20408;-75
2022/08/01 14:55:38;;;;;;;1.85;0.82;;;48.60;12.70;;;;;;6293812;28;20051;-75
2022/08/01 14:58:39;;;;;;;3.90;0.80;;;47.20;13.20;;;;;;6294756;28;20040;-74
2022/08/01 15:01:40;;;;;;;1.70;1.10;;;45.60;14.10;;;;;;6294920;28;20051;-76
2022/08/01 15:04:41;;;;;;;7.00;1.10;;;44.30;14.90;;;;;;6294788;28;20424;-75
2022/08/01 15:07:42;;;;;;;3.22;0.70;;;43.10;15.40;;;;;;6294162;28;20025;-75
2022/08/01 15:10:43;;;;;;;1.67;0.90;;;42.30;16.00;;;;;;6276019;28;20417;-75
2022/08/01 15:13:44;;;;;;;1.10;0.80;;;41.50;16.30;;;;;;6294277;28;20101;-76
2022/08/01 15:16:45;;;;;;;1.38;0.60;;;40.80;16.70;;;;;;6293294;28;20477;-75
2022/08/01 15:19:48;;;;;;;2.45;1.00;;;40.20;17.00;;;;;;6294607;28;20086;-74
2022/08/01 15:22:49;;;;;;;0.90;0.80;;;39.70;17.30;;;;;;6295395;28;20123;-75
2022/08/01 15:25:50;;;;;;;3.90;0.73;;;39.40;17.50;;;;;;6294042;28;20036;-75
2022/08/01 15:28:51;;;;;;;0.82;0.70;;;39.10;17.70;;;;;;6295270;28;20101;-75
2022/08/01 15:31:52;;;;;;;5.20;1.00;;;39.70;17.40;;;;;;6309004;28;20327;-74
2022/08/01 15:34:54;;;;;;;4.03;1.08;;;41.10;16.50;;;;;;6294358;28;20043;-75
2022/08/01 15:37:55;;;;;;;2.55;0.75;;;42.30;15.60;;;;;;6294211;28;20461;-75
2022/08/01 15:40:56;;;;;;;2.88;0.80;;;43.40;14.90;;;;;;6283889;28;20048;-75
2022/08/01 15:43:57;;;;;;;1.30;0.82;;;44.30;14.90;;;;;;6293842;28;20477;-75
2022/08/01 15:46:58;;;;;;;3.38;1.00;;;45.00;13.90;;;;;;6294188;28;20129;-75
2022/08/01 15:50:01;;;;;;;1.92;0.90;;;45.50;13.60;;;;;;6293434;28;20040;-75
2022/08/01 15:53:02;;;;;;;3.00;0.77;;;46.10;13.20;;;;;;6292909;28;20036;-75
2022/08/01 15:56:03;;;;;;;1.00;0.90;;;46.30;12.90;;;;;;6293872;28;20047;-75
2022/08/01 15:59:05;;;;;;;3.47;1.00;;;46.30;13.20;;;;;;6283267;28;20462;-75